Eshcol, Pennsylvania
Current Conditions -  °F | °C
As of 1:53 PM on Friday 31 Oct 2014 (Local Time) from KSEG Reporting Station
Overcast Overcast  
Wind Chill: 50°   Ceiling: 6000
Heat Index: 50°   Visibility: 10mi
Dew Point: 34°   Wind: 0mph
Humidity: 54%   Direction: NA
Pressure: 29.92"   Gusts: NA
Location:  40.5551°N, 77.1135°W
Report Text: KSEG 311753Z AUTO 00000KT 10SM OVC060 10/01 A2992 RMK AO2 SLP135 T01000011 10106 20044 58025
Loading
Personal Weather Stations






























Interactive Weather Map New forecast layout! Learn more

10-Day Weather Forecast

Advertisements
Track Severe Weather on mobile